sensor_id;sensor_type;location;lat;lon;timestamp;pressure;altitude;pressure_sealevel;temperature;humidity
14594;BME280;7383;52.354;9.756;2022-08-07T00:01:12;-12782.75;;;18.92;100.00
14594;BME280;7383;52.354;9.756;2022-08-07T00:03:38;-12782.06;;;18.88;100.00
14594;BME280;7383;52.354;9.756;2022-08-07T00:06:05;-12782.31;;;18.89;100.00
14594;BME280;7383;52.354;9.756;2022-08-07T00:08:32;-12781.28;;;18.83;100.00
14594;BME280;7383;52.354;9.756;2022-08-07T00:10:58;-12781.72;;;18.86;100.00
14594;BME280;7383;52.354;9.756;2022-08-07T00:13:25;-12780.50;;;18.79;100.00
14594;BME280;7383;52.354;9.756;2022-08-07T00:15:53;-12779.22;;;18.71;100.00
14594;BME280;7383;52.354;9.756;2022-08-07T00:18:21;-12779.31;;;18.72;100.00
14594;BME280;7383;52.354;9.756;2022-08-07T00:20:48;-12779.13;;;18.71;100.00
14594;BME280;7383;52.354;9.756;2022-08-07T00:23:15;-12777.84;;;18.63;100.00
14594;BME280;7383;52.354;9.756;2022-08-07T00:25:42;-12777.50;;;18.61;100.00
14594;BME280;7383;52.354;9.756;2022-08-07T00:28:09;-12777.06;;;18.58;100.00
14594;BME280;7383;52.354;9.756;2022-08-07T00:30:35;-12777.06;;;18.58;100.00
14594;BME280;7383;52.354;9.756;2022-08-07T00:33:03;-12777.06;;;18.58;100.00
14594;BME280;7383;52.354;9.756;2022-08-07T00:35:30;-12776.63;;;18.56;100.00
14594;BME280;7383;52.354;9.756;2022-08-07T00:37:56;-12775.69;;;18.50;100.00
14594;BME280;7383;52.354;9.756;2022-08-07T00:40:23;-12775.25;;;18.48;100.00
14594;BME280;7383;52.354;9.756;2022-08-07T00:42:50;-12775.00;;;18.46;100.00
14594;BME280;7383;52.354;9.756;2022-08-07T00:45:19;-12775.00;;;18.46;100.00
14594;BME280;7383;52.354;9.756;2022-08-07T00:47:46;-12773.78;;;18.39;100.00
14594;BME280;7383;52.354;9.756;2022-08-07T00:50:15;-12772.66;;;18.33;100.00
14594;BME280;7383;52.354;9.756;2022-08-07T00:52:41;-12771.28;;;18.25;100.00
14594;BME280;7383;52.354;9.756;2022-08-07T00:55:08;-12771.47;;;18.26;100.00
14594;BME280;7383;52.354;9.756;2022-08-07T00:57:35;-12771.38;;;18.25;100.00
14594;BME280;7383;52.354;9.756;2022-08-07T01:00:03;-12771.53;;;18.26;100.00
14594;BME280;7383;52.354;9.756;2022-08-07T01:02:30;-12770.75;;;18.22;100.00
14594;BME280;7383;52.354;9.756;2022-08-07T01:04:57;-12769.56;;;18.14;100.00
14594;BME280;7383;52.354;9.756;2022-08-07T01:07:26;-12768.78;;;18.10;100.00
14594;BME280;7383;52.354;9.756;2022-08-07T01:09:53;-12768.09;;;18.06;100.00
14594;BME280;7383;52.354;9.756;2022-08-07T01:12:20;-12768.59;;;18.09;100.00
14594;BME280;7383;52.354;9.756;2022-08-07T01:14:46;-12768.34;;;18.07;100.00
14594;BME280;7383;52.354;9.756;2022-08-07T01:17:13;-12767.47;;;18.02;100.00
14594;BME280;7383;52.354;9.756;2022-08-07T01:19:40;-12767.06;;;18.00;100.00
14594;BME280;7383;52.354;9.756;2022-08-07T01:22:09;-12766.19;;;17.95;100.00
14594;BME280;7383;52.354;9.756;2022-08-07T01:24:37;-12766.19;;;17.95;100.00
14594;BME280;7383;52.354;9.756;2022-08-07T01:27:04;-12765.69;;;17.92;100.00
14594;BME280;7383;52.354;9.756;2022-08-07T01:29:31;-12765.59;;;17.91;100.00
14594;BME280;7383;52.354;9.756;2022-08-07T01:31:58;-12765.41;;;17.90;100.00
14594;BME280;7383;52.354;9.756;2022-08-07T01:34:25;-12765.06;;;17.88;100.00
14594;BME280;7383;52.354;9.756;2022-08-07T01:36:51;-12764.03;;;17.82;100.00
14594;BME280;7383;52.354;9.756;2022-08-07T01:39:20;-12764.03;;;17.82;100.00
14594;BME280;7383;52.354;9.756;2022-08-07T01:41:46;-12764.56;;;17.85;100.00
14594;BME280;7383;52.354;9.756;2022-08-07T01:44:13;-12764.13;;;17.83;100.00
14594;BME280;7383;52.354;9.756;2022-08-07T01:46:40;-12763.44;;;17.79;100.00
14594;BME280;7383;52.354;9.756;2022-08-07T01:49:07;-12763.34;;;17.78;100.00
14594;BME280;7383;52.354;9.756;2022-08-07T01:51:34;-12763.00;;;17.76;100.00
14594;BME280;7383;52.354;9.756;2022-08-07T01:54:06;-12762.41;;;17.73;100.00
14594;BME280;7383;52.354;9.756;2022-08-07T01:56:41;-12762.47;;;17.73;100.00
14594;BME280;7383;52.354;9.756;2022-08-07T01:59:13;-12762.06;;;17.70;100.00
14594;BME280;7383;52.354;9.756;2022-08-07T02:01:43;-12761.28;;;17.66;100.00
14594;BME280;7383;52.354;9.756;2022-08-07T02:04:16;-12760.16;;;17.59;100.00
14594;BME280;7383;52.354;9.756;2022-08-07T02:06:44;-12759.19;;;17.54;100.00
14594;BME280;7383;52.354;9.756;2022-08-07T02:09:14;-12758.69;;;17.51;100.00
14594;BME280;7383;52.354;9.756;2022-08-07T02:11:45;-12758.41;;;17.49;100.00
14594;BME280;7383;52.354;9.756;2022-08-07T02:14:15;-12757.56;;;17.44;100.00
14594;BME280;7383;52.354;9.756;2022-08-07T02:16:43;-12756.94;;;17.41;100.00
14594;BME280;7383;52.354;9.756;2022-08-07T02:19:12;-12756.53;;;17.38;100.00
14594;BME280;7383;52.354;9.756;2022-08-07T02:21:40;-12755.75;;;17.34;100.00
14594;BME280;7383;52.354;9.756;2022-08-07T02:24:08;-12755.31;;;17.31;100.00
14594;BME280;7383;52.354;9.756;2022-08-07T02:26:36;-12754.34;;;17.26;100.00
14594;BME280;7383;52.354;9.756;2022-08-07T02:29:06;-12753.31;;;17.19;100.00
14594;BME280;7383;52.354;9.756;2022-08-07T02:31:34;-12753.75;;;17.22;100.00
14594;BME280;7383;52.354;9.756;2022-08-07T02:34:02;-12753.66;;;17.21;100.00
14594;BME280;7383;52.354;9.756;2022-08-07T02:36:30;-12753.25;;;17.19;100.00
14594;BME280;7383;52.354;9.756;2022-08-07T02:38:59;-12752.63;;;17.15;100.00
14594;BME280;7383;52.354;9.756;2022-08-07T02:41:28;-12752.28;;;17.13;100.00
14594;BME280;7383;52.354;9.756;2022-08-07T02:43:56;-12752.38;;;17.14;100.00
14594;BME280;7383;52.354;9.756;2022-08-07T02:46:26;-12751.94;;;17.11;100.00
14594;BME280;7383;52.354;9.756;2022-08-07T02:48:55;-12750.91;;;17.05;100.00
14594;BME280;7383;52.354;9.756;2022-08-07T02:51:23;-12750.47;;;17.03;100.00
14594;BME280;7383;52.354;9.756;2022-08-07T02:53:51;-12750.13;;;17.01;100.00
14594;BME280;7383;52.354;9.756;2022-08-07T02:56:20;-12750.38;;;17.02;100.00
14594;BME280;7383;52.354;9.756;2022-08-07T02:58:49;-12750.22;;;17.01;100.00
14594;BME280;7383;52.354;9.756;2022-08-07T03:01:17;-12748.91;;;16.94;100.00
14594;BME280;7383;52.354;9.756;2022-08-07T03:03:48;-12749.09;;;16.95;100.00
14594;BME280;7383;52.354;9.756;2022-08-07T03:06:15;-12748.41;;;16.91;100.00
14594;BME280;7383;52.354;9.756;2022-08-07T03:08:43;-12748.50;;;16.91;100.00
14594;BME280;7383;52.354;9.756;2022-08-07T03:11:10;-12748.41;;;16.91;100.00
14594;BME280;7383;52.354;9.756;2022-08-07T03:13:37;-12748.41;;;16.91;100.00
14594;BME280;7383;52.354;9.756;2022-08-07T03:16:03;-12748.31;;;16.90;100.00
14594;BME280;7383;52.354;9.756;2022-08-07T03:18:30;-12748.22;;;16.90;100.00
14594;BME280;7383;52.354;9.756;2022-08-07T03:20:58;-12748.31;;;16.90;100.00
14594;BME280;7383;52.354;9.756;2022-08-07T03:23:26;-12747.63;;;16.86;100.00
14594;BME280;7383;52.354;9.756;2022-08-07T03:25:54;-12747.28;;;16.84;100.00
14594;BME280;7383;52.354;9.756;2022-08-07T03:28:22;-12746.75;;;16.81;100.00
14594;BME280;7383;52.354;9.756;2022-08-07T03:30:49;-12746.75;;;16.81;100.00
14594;BME280;7383;52.354;9.756;2022-08-07T03:33:37;-12746.50;;;16.80;100.00
14594;BME280;7383;52.354;9.756;2022-08-07T03:36:06;-12745.81;;;16.76;100.00
14594;BME280;7383;52.354;9.756;2022-08-07T03:38:34;-12745.38;;;16.73;100.00
14594;BME280;7383;52.354;9.756;2022-08-07T03:41:01;-12745.38;;;16.73;100.00
14594;BME280;7383;52.354;9.756;2022-08-07T03:43:28;-12745.19;;;16.72;100.00
14594;BME280;7383;52.354;9.756;2022-08-07T03:45:54;-12744.69;;;16.69;100.00
14594;BME280;7383;52.354;9.756;2022-08-07T03:48:21;-12744.16;;;16.66;100.00
14594;BME280;7383;52.354;9.756;2022-08-07T03:50:48;-12743.28;;;16.61;100.00
14594;BME280;7383;52.354;9.756;2022-08-07T03:53:16;-12742.00;;;16.53;100.00
14594;BME280;7383;52.354;9.756;2022-08-07T03:55:42;-12741.56;;;16.51;100.00
14594;BME280;7383;52.354;9.756;2022-08-07T03:58:10;-12741.31;;;16.49;100.00
14594;BME280;7383;52.354;9.756;2022-08-07T04:00:37;-12740.97;;;16.47;100.00
14594;BME280;7383;52.354;9.756;2022-08-07T04:03:06;-12740.97;;;16.47;100.00
14594;BME280;7383;52.354;9.756;2022-08-07T04:05:33;-12740.69;;;16.46;100.00
14594;BME280;7383;52.354;9.756;2022-08-07T04:08:00;-12740.78;;;16.46;100.00
14594;BME280;7383;52.354;9.756;2022-08-07T04:10:29;-12740.97;;;16.47;100.00
14594;BME280;7383;52.354;9.756;2022-08-07T04:12:56;-12740.78;;;16.46;100.00
14594;BME280;7383;52.354;9.756;2022-08-07T04:15:23;-12740.69;;;16.46;100.00
14594;BME280;7383;52.354;9.756;2022-08-07T04:17:49;-12740.78;;;16.46;100.00
14594;BME280;7383;52.354;9.756;2022-08-07T04:20:16;-12740.09;;;16.42;100.00
14594;BME280;7383;52.354;9.756;2022-08-07T04:22:43;-12739.94;;;16.41;100.00
14594;BME280;7383;52.354;9.756;2022-08-07T04:25:10;-12738.97;;;16.36;100.00
14594;BME280;7383;52.354;9.756;2022-08-07T04:27:39;-12738.97;;;16.36;100.00
14594;BME280;7383;52.354;9.756;2022-08-07T04:30:06;-12739.31;;;16.38;100.00
14594;BME280;7383;52.354;9.756;2022-08-07T04:32:33;-12739.50;;;16.39;100.00
14594;BME280;7383;52.354;9.756;2022-08-07T04:35:01;-12739.31;;;16.38;100.00
14594;BME280;7383;52.354;9.756;2022-08-07T04:37:30;-12738.88;;;16.35;100.00
14594;BME280;7383;52.354;9.756;2022-08-07T04:39:57;-12738.44;;;16.33;100.00
14594;BME280;7383;52.354;9.756;2022-08-07T04:42:23;-12738.53;;;16.33;100.00
14594;BME280;7383;52.354;9.756;2022-08-07T04:44:53;-12738.88;;;16.35;100.00
14594;BME280;7383;52.354;9.756;2022-08-07T04:47:28;-12739.16;;;16.37;100.00
14594;BME280;7383;52.354;9.756;2022-08-07T04:50:05;-12739.94;;;16.41;100.00
14594;BME280;7383;52.354;9.756;2022-08-07T04:52:41;-12740.19;;;16.43;100.00
14594;BME280;7383;52.354;9.756;2022-08-07T04:55:15;-12740.34;;;16.44;100.00
14594;BME280;7383;52.354;9.756;2022-08-07T04:57:48;-12741.22;;;16.49;100.00
14594;BME280;7383;52.354;9.756;2022-08-07T05:00:20;-12741.31;;;16.49;100.00
14594;BME280;7383;52.354;9.756;2022-08-07T05:02:57;-12741.75;;;16.52;100.00
14594;BME280;7383;52.354;9.756;2022-08-07T05:05:30;-12742.00;;;16.53;100.00
14594;BME280;7383;52.354;9.756;2022-08-07T05:08:03;-12741.81;;;16.52;100.00
14594;BME280;7383;52.354;9.756;2022-08-07T05:10:36;-12741.66;;;16.51;100.00
14594;BME280;7383;52.354;9.756;2022-08-07T05:13:07;-12742.00;;;16.53;100.00
14594;BME280;7383;52.354;9.756;2022-08-07T05:15:38;-12742.34;;;16.55;100.00
14594;BME280;7383;52.354;9.756;2022-08-07T05:18:11;-12742.25;;;16.55;100.00
14594;BME280;7383;52.354;9.756;2022-08-07T05:20:40;-12742.59;;;16.57;100.00
14594;BME280;7383;52.354;9.756;2022-08-07T05:23:10;-12742.94;;;16.59;100.00
14594;BME280;7383;52.354;9.756;2022-08-07T05:25:39;-12743.38;;;16.61;100.00
14594;BME280;7383;52.354;9.756;2022-08-07T05:28:08;-12743.81;;;16.64;100.00
14594;BME280;7383;52.354;9.756;2022-08-07T05:30:42;-12743.91;;;16.64;100.00
14594;BME280;7383;52.354;9.756;2022-08-07T05:33:10;-12744.69;;;16.69;100.00
14594;BME280;7383;52.354;9.756;2022-08-07T05:35:38;-12745.38;;;16.73;100.00
14594;BME280;7383;52.354;9.756;2022-08-07T05:38:06;-12745.47;;;16.73;100.00
14594;BME280;7383;52.354;9.756;2022-08-07T05:40:35;-12745.91;;;16.76;100.00
14594;BME280;7383;52.354;9.756;2022-08-07T05:43:02;-12746.16;;;16.78;100.00
14594;BME280;7383;52.354;9.756;2022-08-07T05:45:29;-12747.00;;;16.83;100.00
14594;BME280;7383;52.354;9.756;2022-08-07T05:47:59;-12747.09;;;16.83;100.00
14594;BME280;7383;52.354;9.756;2022-08-07T05:50:27;-12747.28;;;16.84;100.00
14594;BME280;7383;52.354;9.756;2022-08-07T05:52:56;-12747.88;;;16.88;100.00
14594;BME280;7383;52.354;9.756;2022-08-07T05:55:23;-12748.66;;;16.92;100.00
14594;BME280;7383;52.354;9.756;2022-08-07T05:57:49;-12749.59;;;16.98;100.00
14594;BME280;7383;52.354;9.756;2022-08-07T06:00:17;-12750.56;;;17.03;100.00
14594;BME280;7383;52.354;9.756;2022-08-07T06:02:48;-12751.44;;;17.08;100.00
14594;BME280;7383;52.354;9.756;2022-08-07T06:05:17;-12751.25;;;17.07;100.00
14594;BME280;7383;52.354;9.756;2022-08-07T06:07:46;-12751.50;;;17.09;100.00
14594;BME280;7383;52.354;9.756;2022-08-07T06:10:13;-12752.38;;;17.14;100.00
14594;BME280;7383;52.354;9.756;2022-08-07T06:12:40;-12753.06;;;17.18;100.00
14594;BME280;7383;52.354;9.756;2022-08-07T06:15:08;-12753.66;;;17.21;100.00
14594;BME280;7383;52.354;9.756;2022-08-07T06:17:37;-12754.28;;;17.25;100.00
14594;BME280;7383;52.354;9.756;2022-08-07T06:20:06;-12754.88;;;17.29;100.00
14594;BME280;7383;52.354;9.756;2022-08-07T06:22:36;-12755.22;;;17.31;100.00
14594;BME280;7383;52.354;9.756;2022-08-07T06:25:03;-12756.00;;;17.35;100.00
14594;BME280;7383;52.354;9.756;2022-08-07T06:27:30;-12756.69;;;17.39;100.00
14594;BME280;7383;52.354;9.756;2022-08-07T06:29:56;-12757.13;;;17.42;100.00
14594;BME280;7383;52.354;9.756;2022-08-07T06:32:23;-12758.00;;;17.47;100.00
14594;BME280;7383;52.354;9.756;2022-08-07T06:34:49;-12758.41;;;17.49;100.00
14594;BME280;7383;52.354;9.756;2022-08-07T06:37:16;-12759.19;;;17.54;100.00
14594;BME280;7383;52.354;9.756;2022-08-07T06:39:46;-12759.72;;;17.57;100.00
14594;BME280;7383;52.354;9.756;2022-08-07T06:42:15;-12760.16;;;17.59;100.00
14594;BME280;7383;52.354;9.756;2022-08-07T06:44:44;-12760.31;;;17.60;100.00
14594;BME280;7383;52.354;9.756;2022-08-07T06:47:11;-12761.09;;;17.65;100.00
14594;BME280;7383;52.354;9.756;2022-08-07T06:49:38;-12762.47;;;17.73;100.00
14594;BME280;7383;52.354;9.756;2022-08-07T06:52:07;-12763.34;;;17.78;100.00
14594;BME280;7383;52.354;9.756;2022-08-07T06:54:40;-12763.09;;;17.77;100.00
14594;BME280;7383;52.354;9.756;2022-08-07T06:57:09;-12764.91;;;17.87;100.00
14594;BME280;7383;52.354;9.756;2022-08-07T06:59:38;-12765.34;;;17.90;100.00
14594;BME280;7383;52.354;9.756;2022-08-07T07:02:07;-12766.28;;;17.95;100.00
14594;BME280;7383;52.354;9.756;2022-08-07T07:04:34;-12766.88;;;17.99;100.00
14594;BME280;7383;52.354;9.756;2022-08-07T07:07:01;-12767.22;;;18.01;100.00
14594;BME280;7383;52.354;9.756;2022-08-07T07:09:31;-12768.00;;;18.05;100.00
14594;BME280;7383;52.354;9.756;2022-08-07T07:12:16;-12768.88;;;18.10;100.00
14594;BME280;7383;52.354;9.756;2022-08-07T07:14:49;-12769.38;;;18.13;100.00
14594;BME280;7383;52.354;9.756;2022-08-07T07:17:19;-12770.00;;;18.17;100.00
14594;BME280;7383;52.354;9.756;2022-08-07T07:19:51;-12770.84;;;18.22;100.00
14594;BME280;7383;52.354;9.756;2022-08-07T07:22:18;-12771.19;;;18.24;100.00
14594;BME280;7383;52.354;9.756;2022-08-07T07:24:45;-12772.22;;;18.30;100.00
14594;BME280;7383;52.354;9.756;2022-08-07T07:27:16;-12773.00;;;18.35;100.00
14594;BME280;7383;52.354;9.756;2022-08-07T07:29:48;-12774.03;;;18.41;100.00
14594;BME280;7383;52.354;9.756;2022-08-07T07:32:17;-12774.81;;;18.45;100.00
14594;BME280;7383;52.354;9.756;2022-08-07T07:34:48;-12775.69;;;18.50;100.00
14594;BME280;7383;52.354;9.756;2022-08-07T07:37:18;-12776.28;;;18.54;100.00
14594;BME280;7383;52.354;9.756;2022-08-07T07:39:47;-12776.72;;;18.56;100.00
14594;BME280;7383;52.354;9.756;2022-08-07T07:42:16;-12777.31;;;18.60;100.00
14594;BME280;7383;52.354;9.756;2022-08-07T07:44:45;-12777.84;;;18.63;100.00
14594;BME280;7383;52.354;9.756;2022-08-07T07:47:13;-12778.53;;;18.67;100.00
14594;BME280;7383;52.354;9.756;2022-08-07T07:49:42;-12779.31;;;18.72;100.00
14594;BME280;7383;52.354;9.756;2022-08-07T07:52:10;-12780.25;;;18.77;100.00
14594;BME280;7383;52.354;9.756;2022-08-07T07:54:38;-12780.94;;;18.81;100.00
14594;BME280;7383;52.354;9.756;2022-08-07T07:57:06;-12781.72;;;18.86;100.00
14594;BME280;7383;52.354;9.756;2022-08-07T07:59:37;-12782.41;;;18.90;100.00
14594;BME280;7383;52.354;9.756;2022-08-07T08:02:05;-12782.66;;;18.91;100.00
14594;BME280;7383;52.354;9.756;2022-08-07T08:04:32;-12783.59;;;18.97;100.00
14594;BME280;7383;52.354;9.756;2022-08-07T08:07:01;-12784.56;;;19.02;100.00
14594;BME280;7383;52.354;9.756;2022-08-07T08:09:29;-12785.41;;;19.07;100.00
14594;BME280;7383;52.354;9.756;2022-08-07T08:12:00;-12786.09;;;19.11;100.00
14594;BME280;7383;52.354;9.756;2022-08-07T08:17:22;-12787.66;;;19.21;100.00
14594;BME280;7383;52.354;9.756;2022-08-07T08:19:49;-12788.44;;;19.25;100.00
14594;BME280;7383;52.354;9.756;2022-08-07T08:22:16;-12789.47;;;19.31;100.00
14594;BME280;7383;52.354;9.756;2022-08-07T08:25:01;-12789.91;;;19.34;100.00
14594;BME280;7383;52.354;9.756;2022-08-07T08:27:54;-12790.66;;;19.38;100.00
14594;BME280;7383;52.354;9.756;2022-08-07T08:30:23;-12791.28;;;19.42;100.00
14594;BME280;7383;52.354;9.756;2022-08-07T08:32:55;-12792.38;;;19.48;100.00
14594;BME280;7383;52.354;9.756;2022-08-07T08:35:26;-12793.25;;;19.53;100.00
14594;BME280;7383;52.354;9.756;2022-08-07T08:37:57;-12794.03;;;19.58;100.00
14594;BME280;7383;52.354;9.756;2022-08-07T08:40:29;-12794.81;;;19.62;100.00
14594;BME280;7383;52.354;9.756;2022-08-07T08:43:01;-12795.75;;;19.68;100.00
14594;BME280;7383;52.354;9.756;2022-08-07T08:45:36;-12796.25;;;19.71;100.00
14594;BME280;7383;52.354;9.756;2022-08-07T08:48:08;-12796.69;;;19.74;100.00
14594;BME280;7383;52.354;9.756;2022-08-07T08:50:46;-12797.13;;;19.76;100.00
14594;BME280;7383;52.354;9.756;2022-08-07T08:53:18;-12797.63;;;19.79;100.00
14594;BME280;7383;52.354;9.756;2022-08-07T08:55:53;-12798.06;;;19.82;100.00
14594;BME280;7383;52.354;9.756;2022-08-07T08:58:28;-12798.66;;;19.85;100.00
14594;BME280;7383;52.354;9.756;2022-08-07T09:01:00;-12799.00;;;19.87;100.00
14594;BME280;7383;52.354;9.756;2022-08-07T09:03:33;-12799.88;;;19.92;100.00
14594;BME280;7383;52.354;9.756;2022-08-07T09:06:06;-12800.72;;;19.97;100.00
14594;BME280;7383;52.354;9.756;2022-08-07T09:08:40;-12801.16;;;20.00;100.00
14594;BME280;7383;52.354;9.756;2022-08-07T09:11:15;-12802.19;;;20.06;100.00
14594;BME280;7383;52.354;9.756;2022-08-07T09:14:11;-12802.72;;;20.09;100.00
14594;BME280;7383;52.354;9.756;2022-08-07T09:16:48;-12803.75;;;20.15;100.00
14594;BME280;7383;52.354;9.756;2022-08-07T09:19:24;-12804.69;;;20.21;100.00
14594;BME280;7383;52.354;9.756;2022-08-07T09:22:05;-12805.53;;;20.26;100.00
14594;BME280;7383;52.354;9.756;2022-08-07T09:24:45;-12806.50;;;20.31;100.00
14594;BME280;7383;52.354;9.756;2022-08-07T09:27:22;-12807.09;;;20.35;100.00
14594;BME280;7383;52.354;9.756;2022-08-07T09:29:55;-12807.69;;;20.38;100.00
14594;BME280;7383;52.354;9.756;2022-08-07T09:32:30;-12809.84;;;20.51;100.00
14594;BME280;7383;52.354;9.756;2022-08-07T09:35:05;-12811.06;;;20.58;100.00
14594;BME280;7383;52.354;9.756;2022-08-07T09:37:39;-12811.06;;;20.58;100.00
14594;BME280;7383;52.354;9.756;2022-08-07T09:40:15;-12811.38;;;20.60;100.00
14594;BME280;7383;52.354;9.756;2022-08-07T09:42:49;-12811.31;;;20.59;100.00
14594;BME280;7383;52.354;9.756;2022-08-07T09:45:25;-12811.56;;;20.61;100.00
14594;BME280;7383;52.354;9.756;2022-08-07T09:48:05;-12811.56;;;20.61;100.00
14594;BME280;7383;52.354;9.756;2022-08-07T09:50:45;-12811.91;;;20.63;100.00
14594;BME280;7383;52.354;9.756;2022-08-07T09:53:14;-12812.41;;;20.66;100.00
14594;BME280;7383;52.354;9.756;2022-08-07T09:55:58;-12812.94;;;20.69;100.00
14594;BME280;7383;52.354;9.756;2022-08-07T09:58:50;-12813.72;;;20.74;100.00
14594;BME280;7383;52.354;9.756;2022-08-07T10:01:40;-12814.47;;;20.78;100.00
14594;BME280;7383;52.354;9.756;2022-08-07T10:04:27;-12814.31;;;20.77;100.00
14594;BME280;7383;52.354;9.756;2022-08-07T10:07:12;-12814.81;;;20.80;100.00
14594;BME280;7383;52.354;9.756;2022-08-07T10:09:54;-12815.00;;;20.81;100.00
14594;BME280;7383;52.354;9.756;2022-08-07T10:12:41;-12815.69;;;20.85;100.00
14594;BME280;7383;52.354;9.756;2022-08-07T10:15:24;-12816.09;;;20.88;100.00
14594;BME280;7383;52.354;9.756;2022-08-07T10:18:10;-12817.16;;;20.94;100.00
14594;BME280;7383;52.354;9.756;2022-08-07T10:20:45;-12818.34;;;21.01;100.00
14594;BME280;7383;52.354;9.756;2022-08-07T10:23:41;-12819.63;;;21.08;100.00
14594;BME280;7383;52.354;9.756;2022-08-07T10:26:29;-12821.25;;;21.18;100.00
14594;BME280;7383;52.354;9.756;2022-08-07T10:29:16;-12823.50;;;21.31;100.00
14594;BME280;7383;52.354;9.756;2022-08-07T10:31:59;-12825.97;;;21.46;100.00
14594;BME280;7383;52.354;9.756;2022-08-07T10:34:41;-12827.00;;;21.52;100.00
14594;BME280;7383;52.354;9.756;2022-08-07T10:37:26;-12828.56;;;21.61;100.00
14594;BME280;7383;52.354;9.756;2022-08-07T10:40:02;-12829.50;;;21.67;100.00
14594;BME280;7383;52.354;9.756;2022-08-07T10:42:35;-12830.53;;;21.73;100.00
14594;BME280;7383;52.354;9.756;2022-08-07T10:45:11;-12831.22;;;21.77;100.00
14594;BME280;7383;52.354;9.756;2022-08-07T10:47:45;-12831.28;;;21.77;100.00
14594;BME280;7383;52.354;9.756;2022-08-07T10:50:20;-12831.63;;;21.79;100.00
14594;BME280;7383;52.354;9.756;2022-08-07T10:52:54;-12832.06;;;21.82;100.00
14594;BME280;7383;52.354;9.756;2022-08-07T10:55:29;-12833.00;;;21.87;100.00
14594;BME280;7383;52.354;9.756;2022-08-07T10:58:04;-12834.13;;;21.94;100.00
14594;BME280;7383;52.354;9.756;2022-08-07T11:00:44;-12835.25;;;22.00;100.00
14594;BME280;7383;52.354;9.756;2022-08-07T11:03:15;-12836.09;;;22.05;100.00
14594;BME280;7383;52.354;9.756;2022-08-07T11:05:48;-12836.88;;;22.10;100.00
14594;BME280;7383;52.354;9.756;2022-08-07T11:08:25;-12837.81;;;22.16;100.00
14594;BME280;7383;52.354;9.756;2022-08-07T11:11:02;-12838.22;;;22.18;100.00
14594;BME280;7383;52.354;9.756;2022-08-07T11:13:33;-12838.75;;;22.21;100.00
14594;BME280;7383;52.354;9.756;2022-08-07T11:16:06;-12840.03;;;22.29;100.00
14594;BME280;7383;52.354;9.756;2022-08-07T11:18:37;-12841.22;;;22.36;100.00
14594;BME280;7383;52.354;9.756;2022-08-07T11:21:09;-12842.69;;;22.44;100.00
14594;BME280;7383;52.354;9.756;2022-08-07T11:23:46;-12844.56;;;22.55;100.00
14594;BME280;7383;52.354;9.756;2022-08-07T11:26:25;-12846.88;;;22.69;100.00
14594;BME280;7383;52.354;9.756;2022-08-07T11:28:57;-12849.44;;;22.84;100.00
14594;BME280;7383;52.354;9.756;2022-08-07T11:31:30;-12851.75;;;22.98;100.00
14594;BME280;7383;52.354;9.756;2022-08-07T11:34:04;-12854.16;;;23.12;100.00
14594;BME280;7383;52.354;9.756;2022-08-07T11:36:39;-12855.50;;;23.20;100.00
14594;BME280;7383;52.354;9.756;2022-08-07T11:39:16;-12856.38;;;23.25;100.00
14594;BME280;7383;52.354;9.756;2022-08-07T11:41:54;-12858.06;;;23.35;100.00
14594;BME280;7383;52.354;9.756;2022-08-07T11:44:27;-12857.72;;;23.33;100.00
14594;BME280;7383;52.354;9.756;2022-08-07T11:47:00;-12856.72;;;23.27;100.00
14594;BME280;7383;52.354;9.756;2022-08-07T11:49:54;-12857.06;;;23.29;100.00
14594;BME280;7383;52.354;9.756;2022-08-07T11:52:44;-12856.88;;;23.28;100.00
14594;BME280;7383;52.354;9.756;2022-08-07T11:55:16;-12856.28;;;23.25;100.00
14594;BME280;7383;52.354;9.756;2022-08-07T11:58:00;-12856.47;;;23.26;100.00
14594;BME280;7383;52.354;9.756;2022-08-07T12:00:33;-12856.63;;;23.27;100.00
14594;BME280;7383;52.354;9.756;2022-08-07T12:03:20;-12858.25;;;23.36;100.00
14594;BME280;7383;52.354;9.756;2022-08-07T12:05:58;-12860.22;;;23.48;100.00
14594;BME280;7383;52.354;9.756;2022-08-07T12:08:38;-12862.78;;;23.63;100.00
14594;BME280;7383;52.354;9.756;2022-08-07T12:11:09;-12865.59;;;23.80;100.00
14594;BME280;7383;52.354;9.756;2022-08-07T12:13:42;-12868.06;;;23.94;100.00
14594;BME280;7383;52.354;9.756;2022-08-07T12:16:14;-12870.88;;;24.11;100.00
14594;BME280;7383;52.354;9.756;2022-08-07T12:18:45;-12873.97;;;24.29;100.00
14594;BME280;7383;52.354;9.756;2022-08-07T12:21:35;-12877.38;;;24.49;100.00
14594;BME280;7383;52.354;9.756;2022-08-07T12:24:05;-12879.16;;;24.60;100.00
14594;BME280;7383;52.354;9.756;2022-08-07T12:26:39;-12880.94;;;24.71;100.00
14594;BME280;7383;52.354;9.756;2022-08-07T12:29:11;-12881.81;;;24.76;100.00
14594;BME280;7383;52.354;9.756;2022-08-07T12:31:43;-12883.09;;;24.83;100.00
14594;BME280;7383;52.354;9.756;2022-08-07T12:34:17;-12884.28;;;24.90;100.00
14594;BME280;7383;52.354;9.756;2022-08-07T12:36:52;-12885.22;;;24.96;100.00
14594;BME280;7383;52.354;9.756;2022-08-07T12:39:23;-12887.84;;;25.12;100.00
14594;BME280;7383;52.354;9.756;2022-08-07T12:41:55;-12889.91;;;25.24;100.00
14594;BME280;7383;52.354;9.756;2022-08-07T12:44:28;-12889.72;;;25.23;100.00
14594;BME280;7383;52.354;9.756;2022-08-07T12:47:04;-12890.25;;;25.26;100.00
14594;BME280;7383;52.354;9.756;2022-08-07T12:49:41;-12892.78;;;25.41;100.00
14594;BME280;7383;52.354;9.756;2022-08-07T12:52:29;-12895.09;;;25.55;100.00
14594;BME280;7383;52.354;9.756;2022-08-07T12:55:12;-12895.94;;;25.60;100.00
14594;BME280;7383;52.354;9.756;2022-08-07T12:57:41;-12897.47;;;25.69;100.00
14594;BME280;7383;52.354;9.756;2022-08-07T13:00:14;-12897.56;;;25.69;100.00
14594;BME280;7383;52.354;9.756;2022-08-07T13:03:06;-12897.47;;;25.69;100.00
14594;BME280;7383;52.354;9.756;2022-08-07T13:05:52;-12899.09;;;25.78;100.00
14594;BME280;7383;52.354;9.756;2022-08-07T13:08:33;-12899.19;;;25.79;100.00
14594;BME280;7383;52.354;9.756;2022-08-07T13:11:09;-12899.94;;;25.83;100.00
14594;BME280;7383;52.354;9.756;2022-08-07T13:13:51;-12900.69;;;25.88;100.00
14594;BME280;7383;52.354;9.756;2022-08-07T13:16:28;-12902.06;;;25.96;100.00